Time;durP1;ratioP1;P1;durP2;ratioP2;P2;SDS_P1;SDS_P2;PMS_P1;PMS_P2;Temp;Humidity;BMP_temperature;BMP_pressure;BME280_temperature;BME280_humidity;BME280_pressure;Samples;Min_cycle;Max_cycle;Signal;HPM_P1;HPM_P2
2023/08/01 00:01:22;;;;;;;2.20;1.60;;;;;;;21.05;83.63;99151.42;179044;1259;45990;-82
2023/08/01 00:05:25;;;;;;;3.50;2.70;;;;;;;21.01;83.87;99150.59;179221;1258;45768;-83
2023/08/01 00:09:29;;;;;;;2.60;2.40;;;;;;;20.91;85.34;99145.90;178909;1258;57117;-82
2023/08/01 00:13:33;;;;;;;3.80;2.80;;;;;;;20.82;85.13;99137.91;178807;1258;46224;-82
2023/08/01 00:17:36;;;;;;;3.90;2.60;;;;;;;20.80;84.50;99125.48;179408;1258;44759;-83
2023/08/01 00:21:40;;;;;;;3.20;2.00;;;;;;;20.84;84.26;99117.36;178746;1256;45646;-82
2023/08/01 00:25:43;;;;;;;5.90;3.80;;;;;;;20.87;84.14;99113.69;178959;1260;44827;-82
2023/08/01 00:29:47;;;;;;;5.10;2.30;;;;;;;20.90;83.60;99111.92;178755;1259;59316;-82
2023/08/01 00:33:50;;;;;;;3.60;2.40;;;;;;;20.90;84.16;99107.27;178941;1256;46055;-82
2023/08/01 00:37:53;;;;;;;2.30;1.90;;;;;;;20.84;83.61;99104.51;178788;1258;46140;-82
2023/08/01 00:41:57;;;;;;;3.00;2.50;;;;;;;20.80;83.81;99099.17;178905;1261;44891;-82
2023/08/01 00:46:03;;;;;;;3.30;2.00;;;;;;;20.81;83.89;99090.23;178761;1258;44876;-81
2023/08/01 00:50:07;;;;;;;3.10;2.40;;;;;;;20.81;83.70;99079.80;178668;1259;58275;-82
2023/08/01 00:54:10;;;;;;;3.40;2.50;;;;;;;20.80;83.68;99075.85;178783;1258;45733;-82
2023/08/01 00:58:13;;;;;;;4.20;2.20;;;;;;;20.82;83.49;99066.65;178690;1259;46017;-82
2023/08/01 01:02:16;;;;;;;4.30;2.50;;;;;;;20.85;83.69;99057.02;179034;1259;45953;-82
2023/08/01 01:06:25;;;;;;;5.20;3.00;;;;;;;20.85;83.46;99046.18;179168;1259;45966;-82
2023/08/01 01:10:30;;;;;;;9.50;3.20;;;;;;;20.81;82.83;99037.56;178994;1258;59551;-82
2023/08/01 01:14:33;;;;;;;8.10;3.10;;;;;;;20.70;85.40;99035.03;178966;1259;46060;-82
2023/08/01 01:18:36;;;;;;;2.60;1.60;;;;;;;20.53;87.42;99036.10;179045;1256;45975;-82
2023/08/01 01:22:41;;;;;;;2.80;1.80;;;;;;;20.47;87.95;99039.02;179046;1256;46006;-82
2023/08/01 01:26:46;;;;;;;2.50;2.20;;;;;;;20.46;88.00;99043.32;179211;1262;45991;-82
2023/08/01 01:30:49;;;;;;;5.10;2.50;;;;;;;20.44;88.88;99037.48;179377;1259;60381;-82
2023/08/01 01:34:52;;;;;;;5.70;1.80;;;;;;;20.41;89.98;99023.50;178960;1258;46025;-82
2023/08/01 01:38:56;;;;;;;4.00;2.00;;;;;;;20.39;91.05;99024.30;178998;1256;45991;-83
2023/08/01 01:43:00;;;;;;;4.80;4.00;;;;;;;20.34;91.40;99019.52;178950;1257;45976;-82
2023/08/01 01:47:03;;;;;;;4.10;2.90;;;;;;;20.30;91.96;99009.17;179091;1261;46147;-82
2023/08/01 01:51:06;;;;;;;3.20;2.10;;;;;;;20.26;91.85;99000.56;178875;1258;58017;-82
2023/08/01 01:55:09;;;;;;;3.30;2.50;;;;;;;20.23;93.27;98999.01;178807;1257;46121;-82
2023/08/01 01:59:13;;;;;;;3.30;2.20;;;;;;;20.21;93.85;98994.59;178449;1258;45930;-82
2023/08/01 02:03:16;;;;;;;6.10;3.40;;;;;;;20.17;94.84;98992.51;178714;1257;44436;-82
2023/08/01 02:07:19;;;;;;;4.50;2.60;;;;;;;20.10;96.68;98991.19;178644;1259;45990;-82
2023/08/01 02:11:22;;;;;;;5.70;2.80;;;;;;;20.04;98.10;98993.27;178417;1259;57944;-82
2023/08/01 02:15:25;;;;;;;4.40;3.30;;;;;;;20.01;98.79;98987.02;178612;1259;44107;-82
2023/08/01 02:19:29;;;;;;;5.30;3.00;;;;;;;19.97;99.01;98987.23;178230;1257;44744;-82
2023/08/01 02:23:36;;;;;;;5.20;2.80;;;;;;;19.93;99.13;98978.79;178386;1259;46470;-82
2023/08/01 02:27:39;;;;;;;2.50;2.30;;;;;;;19.90;100.00;98972.98;178563;1259;46013;-82
2023/08/01 02:31:42;;;;;;;7.40;3.80;;;;;;;19.81;100.00;98962.60;177979;1259;58279;-82
2023/08/01 02:35:47;;;;;;;4.80;2.90;;;;;;;19.77;100.00;98958.11;178350;1259;46034;-82
2023/08/01 02:39:50;;;;;;;6.20;3.00;;;;;;;19.73;100.00;98951.87;178277;1259;46170;-83
2023/08/01 02:43:53;;;;;;;4.70;3.00;;;;;;;19.67;100.00;98947.23;178337;1262;46200;-83
2023/08/01 02:47:57;;;;;;;3.70;2.30;;;;;;;19.60;100.00;98938.86;178316;1256;46185;-82
2023/08/01 02:52:00;;;;;;;5.80;3.50;;;;;;;19.55;100.00;98934.82;178409;1258;57285;-82
2023/08/01 02:56:07;;;;;;;4.50;2.50;;;;;;;19.55;100.00;98925.86;178309;1258;46114;-83
2023/08/01 03:00:11;;;;;;;6.90;2.70;;;;;;;19.58;100.00;98927.13;178267;1259;45969;-81
2023/08/01 03:04:14;;;;;;;4.70;3.50;;;;;;;19.52;100.00;98923.52;178428;1262;46150;-81
2023/08/01 03:08:18;;;;;;;4.80;3.10;;;;;;;19.44;100.00;98920.92;178662;1259;46028;-82
2023/08/01 03:12:21;;;;;;;6.50;3.80;;;;;;;19.27;100.00;98912.14;178536;1260;58680;-82
2023/08/01 03:16:25;;;;;;;8.70;3.70;;;;;;;19.27;100.00;98904.02;178261;1259;46008;-82
2023/08/01 03:20:28;;;;;;;5.00;3.20;;;;;;;19.30;100.00;98899.02;178679;1258;44054;-81
2023/08/01 03:24:31;;;;;;;3.90;3.40;;;;;;;19.34;100.00;98892.36;178359;1258;45999;-81
2023/08/01 03:28:34;;;;;;;5.70;3.00;;;;;;;19.37;100.00;98891.39;178350;1262;46068;-81
2023/08/01 03:32:38;;;;;;;3.70;2.90;;;;;;;19.36;100.00;98890.81;178637;1258;57925;-83
2023/08/01 03:36:41;;;;;;;3.60;2.60;;;;;;;19.30;100.00;98892.61;178940;1258;45996;-81
2023/08/01 03:40:45;;;;;;;4.80;2.70;;;;;;;19.29;100.00;98889.79;177757;1258;44840;-80
2023/08/01 03:44:48;;;;;;;4.50;2.60;;;;;;;19.21;100.00;98885.27;178556;1258;46134;-83
2023/08/01 03:48:52;;;;;;;4.30;2.70;;;;;;;19.20;100.00;98883.49;179050;1259;45757;-82
2023/08/01 03:52:55;;;;;;;3.60;2.70;;;;;;;19.22;100.00;98876.77;179120;1258;59406;-82
2023/08/01 03:56:58;;;;;;;5.00;3.30;;;;;;;19.26;100.00;98876.28;179081;1259;46104;-82
2023/08/01 04:01:01;;;;;;;4.50;2.70;;;;;;;19.31;100.00;98871.06;179371;1258;45866;-82
2023/08/01 04:05:05;;;;;;;3.50;2.70;;;;;;;19.31;100.00;98866.66;178851;1259;44060;-82
2023/08/01 04:09:08;;;;;;;3.80;2.80;;;;;;;19.37;100.00;98863.14;178693;1259;46110;-82
2023/08/01 04:13:11;;;;;;;4.10;2.10;;;;;;;19.41;100.00;98860.13;178427;1259;58239;-81
2023/08/01 04:17:14;;;;;;;3.20;2.20;;;;;;;19.46;100.00;98857.40;178950;1259;46159;-81
2023/08/01 04:21:18;;;;;;;4.30;2.10;;;;;;;19.51;100.00;98859.35;177970;1259;46186;-81
2023/08/01 04:25:23;;;;;;;4.50;3.00;;;;;;;19.61;100.00;98852.84;178353;1259;45972;-81
2023/08/01 04:29:27;;;;;;;6.50;3.00;;;;;;;19.67;100.00;98842.16;178807;1259;46105;-81
2023/08/01 04:33:30;;;;;;;9.70;3.40;;;;;;;19.70;100.00;98838.36;178318;1259;58285;-81
2023/08/01 04:37:33;;;;;;;7.60;3.90;;;;;;;19.76;100.00;98838.52;177914;1259;46272;-80
2023/08/01 04:41:36;;;;;;;4.10;2.80;;;;;;;19.78;100.00;98838.67;177976;1259;43994;-80
2023/08/01 04:45:39;;;;;;;5.50;3.10;;;;;;;19.79;100.00;98840.31;178530;1259;45016;-81
2023/08/01 04:49:43;;;;;;;5.00;3.40;;;;;;;19.82;100.00;98840.36;178321;1258;45755;-81
2023/08/01 04:53:46;;;;;;;5.60;2.40;;;;;;;19.82;100.00;98839.66;178752;1261;57960;-82
2023/08/01 04:57:49;;;;;;;4.60;2.70;;;;;;;19.85;100.00;98836.23;178535;1259;45999;-82
2023/08/01 05:01:52;;;;;;;4.00;2.90;;;;;;;19.86;100.00;98832.12;178920;1259;46059;-82
2023/08/01 05:05:55;;;;;;;4.50;2.50;;;;;;;19.83;100.00;98824.58;178911;1259;46116;-82
2023/08/01 05:09:59;;;;;;;3.10;2.50;;;;;;;19.88;100.00;98823.05;179195;1258;45907;-82
2023/08/01 05:14:02;;;;;;;2.40;1.80;;;;;;;19.89;100.00;98824.05;178879;1259;57979;-81
2023/08/01 05:18:06;;;;;;;4.40;3.10;;;;;;;19.87;100.00;98821.61;178497;1259;257406;-81
2023/08/01 05:22:09;;;;;;;3.60;2.80;;;;;;;19.84;100.00;98814.89;178675;1258;46031;-82
2023/08/01 05:26:12;;;;;;;16.20;3.50;;;;;;;19.85;100.00;98807.30;178852;1259;45969;-82
2023/08/01 05:30:16;;;;;;;2.00;1.70;;;;;;;19.91;100.00;98804.27;178462;1258;46030;-82
2023/08/01 05:34:20;;;;;;;3.90;2.70;;;;;;;19.94;100.00;98805.08;179094;1260;60678;-82
2023/08/01 05:38:24;;;;;;;3.30;3.00;;;;;;;20.05;100.00;98800.82;178300;1258;45979;-83
2023/08/01 05:42:27;;;;;;;4.80;2.10;;;;;;;20.07;100.00;98792.04;178111;1259;46139;-82
2023/08/01 05:46:30;;;;;;;2.20;1.90;;;;;;;20.10;100.00;98787.68;178675;1259;45952;-82
2023/08/01 05:50:33;;;;;;;2.40;2.20;;;;;;;20.12;100.00;98789.81;178762;1262;46208;-82
2023/08/01 05:54:36;;;;;;;3.90;2.40;;;;;;;20.10;100.00;98785.80;178643;1257;58212;-82
2023/08/01 05:58:39;;;;;;;4.00;1.90;;;;;;;20.11;100.00;98781.15;178473;1258;46061;-82
2023/08/01 06:02:43;;;;;;;2.60;1.40;;;;;;;20.18;100.00;98777.59;178313;1258;45956;-81
2023/08/01 06:06:46;;;;;;;5.60;2.20;;;;;;;20.26;100.00;98771.34;178584;1259;45997;-81
2023/08/01 06:10:49;;;;;;;4.50;2.50;;;;;;;20.40;100.00;98771.09;177991;1259;45982;-81
2023/08/01 06:14:52;;;;;;;2.80;1.70;;;;;;;20.50;100.00;98767.38;177718;1258;58290;-81
2023/08/01 06:18:56;;;;;;;2.80;1.80;;;;;;;20.56;100.00;98771.04;178207;1259;44779;-82
2023/08/01 06:22:59;;;;;;;3.60;2.10;;;;;;;20.60;100.00;98763.42;177991;1259;45954;-82
2023/08/01 06:27:02;;;;;;;4.40;2.30;;;;;;;20.62;100.00;98757.53;178583;1262;45911;-81
2023/08/01 06:31:05;;;;;;;8.30;2.90;;;;;;;20.67;100.00;98745.20;178318;1256;45921;-81
2023/08/01 06:35:08;;;;;;;14.90;2.40;;;;;;;20.68;100.00;98742.73;178271;1260;58322;-81
2023/08/01 06:39:12;;;;;;;3.00;1.90;;;;;;;20.71;100.00;98741.48;178271;1260;46156;-82
2023/08/01 06:43:15;;;;;;;2.30;1.40;;;;;;;20.79;100.00;98737.93;178527;1258;46012;-81
2023/08/01 06:47:18;;;;;;;3.10;1.60;;;;;;;20.80;100.00;98732.55;178795;1258;45869;-81
2023/08/01 06:51:22;;;;;;;3.70;1.90;;;;;;;20.91;100.00;98727.87;178656;1259;46184;-81
2023/08/01 06:55:25;;;;;;;1.90;1.70;;;;;;;21.07;99.98;98718.44;178902;1259;59348;-82
2023/08/01 06:59:28;;;;;;;3.40;0.90;;;;;;;21.19;99.69;98714.45;178763;1256;46051;-82
2023/08/01 07:03:31;;;;;;;2.00;1.10;;;;;;;21.27;99.75;98711.52;178866;1258;46009;-82
2023/08/01 07:07:35;;;;;;;1.80;1.60;;;;;;;21.24;99.15;98709.05;178846;1258;46119;-82
2023/08/01 07:11:38;;;;;;;1.30;1.00;;;;;;;21.18;98.39;98705.70;178577;1258;46143;-81
2023/08/01 07:15:41;;;;;;;5.60;2.20;;;;;;;21.13;98.56;98702.28;179043;1257;59765;-81
2023/08/01 07:19:44;;;;;;;3.00;1.70;;;;;;;21.24;98.97;98698.06;178939;1258;46538;-82
2023/08/01 07:23:48;;;;;;;3.10;1.80;;;;;;;21.36;98.63;98695.35;179106;1258;46067;-81
2023/08/01 07:27:51;;;;;;;2.00;1.20;;;;;;;21.53;96.95;98685.19;179168;1259;46013;-81
2023/08/01 07:31:54;;;;;;;3.50;1.80;;;;;;;21.76;96.19;98679.64;179289;1260;46352;-81
2023/08/01 07:35:58;;;;;;;2.80;2.10;;;;;;;21.91;94.33;98672.86;179207;1260;58252;-82
2023/08/01 07:40:02;;;;;;;2.80;2.40;;;;;;;21.94;92.37;98661.68;179172;1257;46035;-82
2023/08/01 07:44:05;;;;;;;3.10;2.50;;;;;;;21.86;90.92;98658.52;179084;1259;44036;-82
2023/08/01 07:48:09;;;;;;;4.90;2.40;;;;;;;21.78;91.55;98653.91;178993;1258;46047;-82
2023/08/01 07:52:12;;;;;;;6.40;3.10;;;;;;;21.77;93.11;98652.81;179005;1261;44801;-82
2023/08/01 07:56:15;;;;;;;4.60;2.90;;;;;;;21.73;94.93;98647.12;179426;1259;58047;-82
2023/08/01 08:00:19;;;;;;;3.40;2.30;;;;;;;21.69;95.75;98645.77;179060;1259;46069;-81
2023/08/01 08:04:22;;;;;;;5.50;2.80;;;;;;;21.57;96.20;98644.63;179056;1259;46117;-82
2023/08/01 08:08:27;;;;;;;4.60;3.30;;;;;;;21.57;96.89;98642.08;178975;1259;44062;-81
2023/08/01 08:12:32;;;;;;;3.70;3.10;;;;;;;21.57;97.51;98637.08;178954;1259;44128;-82
2023/08/01 08:16:36;;;;;;;3.70;3.20;;;;;;;21.67;97.50;98634.99;178845;1259;60588;-82
2023/08/01 08:20:44;;;;;;;6.40;3.10;;;;;;;21.87;96.38;98622.55;178982;1258;46013;-82
2023/08/01 08:24:50;;;;;;;2.90;2.60;;;;;;;22.09;94.10;98621.88;179043;1259;45419;-82
2023/08/01 08:28:53;;;;;;;3.80;2.80;;;;;;;22.27;91.48;98612.76;179050;1259;44766;-82
2023/08/01 08:33:03;;;;;;;1.90;1.70;;;;;;;22.30;90.76;98615.48;178841;1259;44189;-82
2023/08/01 08:37:10;;;;;;;2.70;2.50;;;;;;;22.38;90.71;98617.55;179284;1256;60434;-82
2023/08/01 08:41:21;;;;;;;3.90;3.10;;;;;;;22.46;91.02;98617.70;179357;1259;46135;-82
2023/08/01 08:45:25;;;;;;;2.40;2.20;;;;;;;22.58;90.91;98609.14;179266;1259;45926;-82
2023/08/01 08:49:29;;;;;;;3.00;2.20;;;;;;;22.71;90.55;98609.42;179110;1260;46028;-82
2023/08/01 08:53:33;;;;;;;2.60;2.40;;;;;;;22.77;89.71;98607.96;179363;1260;46018;-82
2023/08/01 08:57:36;;;;;;;4.60;2.40;;;;;;;22.84;89.14;98608.95;179350;1257;57953;-83
2023/08/01 09:01:40;;;;;;;3.40;2.10;;;;;;;22.99;89.44;98610.63;179377;1257;46387;-82
2023/08/01 09:05:59;;;;;;;4.70;3.20;;;;;;;23.14;89.09;98604.11;179302;1259;46142;-83
2023/08/01 09:10:03;;;;;;;2.20;2.00;;;;;;;23.28;89.30;98599.83;179490;1258;46115;-83
2023/08/01 09:14:07;;;;;;;2.80;2.30;;;;;;;23.35;86.92;98591.88;179518;1258;46073;-83
2023/08/01 09:18:11;;;;;;;2.90;2.40;;;;;;;23.43;86.21;98590.96;179475;1258;57981;-82
2023/08/01 09:22:14;;;;;;;2.20;1.70;;;;;;;23.49;86.28;98590.28;179548;1256;46007;-82
2023/08/01 09:26:19;;;;;;;2.00;1.30;;;;;;;23.48;85.98;98579.41;179428;1258;45975;-83
2023/08/01 09:30:22;;;;;;;2.20;1.90;;;;;;;23.39;85.69;98573.17;179736;1261;45283;-83
2023/08/01 09:34:27;;;;;;;5.40;1.80;;;;;;;23.24;85.11;98572.81;179923;1256;46016;-83
2023/08/01 09:38:37;;;;;;;3.50;1.40;;;;;;;23.20;86.27;98572.20;179587;1259;57937;-82
2023/08/01 09:42:43;;;;;;;2.50;1.60;;;;;;;23.10;85.94;98576.08;179512;1260;48204;-83
2023/08/01 09:46:57;;;;;;;;;;;;;;;23.06;85.94;98576.73;179571;1259;45946;-82
2023/08/01 09:51:10;;;;;;;3.00;2.10;;;;;;;23.03;87.84;98577.45;179655;1261;45895;-82
2023/08/01 09:55:16;;;;;;;3.90;2.90;;;;;;;23.03;87.14;98573.54;179683;1259;45474;-82
2023/08/01 09:59:25;;;;;;;3.40;2.50;;;;;;;23.02;87.49;98564.96;179915;1257;58222;-82
2023/08/01 10:03:29;;;;;;;2.10;1.60;;;;;;;23.01;88.03;98559.63;179562;1258;44690;-82
2023/08/01 10:07:35;;;;;;;2.20;2.00;;;;;;;23.02;88.73;98562.20;179502;1259;45981;-82
2023/08/01 10:11:40;;;;;;;2.20;1.30;;;;;;;23.01;89.51;98555.94;179381;1259;46486;-82
2023/08/01 10:15:44;;;;;;;4.10;2.30;;;;;;;23.02;90.34;98557.54;179622;1261;44884;-83
2023/08/01 10:19:51;;;;;;;1.80;1.30;;;;;;;23.02;92.25;98558.50;179415;1259;58019;-82
2023/08/01 10:23:58;;;;;;;1.70;0.80;;;;;;;22.99;94.33;98558.30;179468;1261;46147;-82
2023/08/01 10:28:03;;;;;;;3.90;1.60;;;;;;;22.93;94.83;98562.52;179246;1258;45279;-82
2023/08/01 10:32:07;;;;;;;2.30;1.80;;;;;;;22.84;95.74;98567.80;179285;1259;46083;-83
2023/08/01 10:36:15;;;;;;;1.70;1.30;;;;;;;22.76;97.05;98570.34;179439;1258;44905;-83
2023/08/01 10:40:42;;;;;;;4.60;1.40;;;;;;;22.69;98.22;98565.20;179697;1258;59249;-82
2023/08/01 10:44:46;;;;;;;1.90;1.50;;;;;;;22.55;99.71;98558.48;179332;1260;46924;-83
2023/08/01 10:48:52;;;;;;;1.70;1.40;;;;;;;22.48;100.00;98558.84;179425;1259;46018;-83
2023/08/01 10:53:06;;;;;;;3.20;2.10;;;;;;;22.40;100.00;98544.66;179410;1260;45729;-83
2023/08/01 10:57:17;;;;;;;1.60;1.20;;;;;;;22.43;100.00;98537.68;179322;1259;45961;-82
2023/08/01 11:01:20;;;;;;;3.00;2.70;;;;;;;22.43;100.00;98534.17;179362;1258;58246;-82
2023/08/01 11:05:25;;;;;;;3.70;1.50;;;;;;;22.54;100.00;98534.47;179413;1260;46072;-83
2023/08/01 11:09:29;;;;;;;1.70;1.50;;;;;;;22.61;100.00;98533.88;179479;1260;44777;-82
2023/08/01 11:13:34;;;;;;;2.20;1.70;;;;;;;22.62;99.99;98522.17;179219;1259;46134;-82
2023/08/01 11:17:48;;;;;;;;;;;;;;;22.61;100.00;98511.52;179425;1258;45906;-83
2023/08/01 11:21:53;;;;;;;1.90;1.60;;;;;;;22.65;100.00;98500.17;179576;1260;57685;-82
2023/08/01 11:25:56;;;;;;;2.40;1.60;;;;;;;22.90;100.00;98504.94;179255;1258;45974;-83
2023/08/01 11:29:59;;;;;;;2.20;1.20;;;;;;;23.17;98.48;98495.09;179457;1260;46444;-82
2023/08/01 11:34:03;;;;;;;2.30;1.30;;;;;;;23.41;97.19;98500.01;179429;1262;44720;-81
2023/08/01 11:38:07;;;;;;;4.40;1.10;;;;;;;23.61;95.09;98493.76;179683;1259;44188;-83
2023/08/01 11:42:16;;;;;;;2.40;0.90;;;;;;;23.85;94.53;98490.18;179859;1262;57940;-83
2023/08/01 11:46:20;;;;;;;1.40;0.90;;;;;;;24.12;93.82;98484.19;179715;1262;46159;-83
2023/08/01 11:50:24;;;;;;;2.10;1.10;;;;;;;24.41;92.20;98481.48;179922;1260;44746;-82
2023/08/01 11:54:28;;;;;;;6.30;1.30;;;;;;;24.83;92.25;98479.57;179780;1261;46067;-82
2023/08/01 11:58:37;;;;;;;0.90;0.80;;;;;;;25.10;88.56;98467.91;180003;1260;44134;-83
2023/08/01 12:02:40;;;;;;;1.20;1.00;;;;;;;25.29;88.85;98459.73;179735;1262;57256;-84
2023/08/01 12:06:44;;;;;;;2.80;0.80;;;;;;;25.60;85.43;98449.66;179826;1260;50070;-83
2023/08/01 12:10:47;;;;;;;0.80;0.40;;;;;;;25.77;81.94;98442.27;179905;1257;46035;-83
2023/08/01 12:14:52;;;;;;;0.60;0.50;;;;;;;25.85;79.84;98441.83;179738;1260;45995;-83
2023/08/01 12:18:57;;;;;;;0.90;0.70;;;;;;;25.95;75.49;98450.94;179924;1261;44624;-83
2023/08/01 12:23:04;;;;;;;0.50;0.40;;;;;;;25.94;75.70;98445.21;179982;1257;59394;-83
2023/08/01 12:27:08;;;;;;;0.80;0.70;;;;;;;26.13;78.54;98443.86;179953;1258;46010;-83
2023/08/01 12:31:18;;;;;;;1.90;0.70;;;;;;;26.09;74.13;98434.25;179981;1257;46149;-83
2023/08/01 12:35:22;;;;;;;0.90;0.50;;;;;;;25.91;73.98;98430.84;179971;1260;45902;-83
2023/08/01 12:39:27;;;;;;;0.90;0.50;;;;;;;25.73;73.47;98440.25;180101;1257;43578;-83
2023/08/01 12:43:31;;;;;;;1.90;0.90;;;;;;;25.65;73.99;98449.89;180027;1259;57018;-83
2023/08/01 12:47:35;;;;;;;2.90;0.60;;;;;;;25.55;72.74;98453.14;180054;1260;45991;-83
2023/08/01 12:51:39;;;;;;;0.90;0.60;;;;;;;25.61;71.61;98451.62;180355;1260;46062;-83
2023/08/01 12:55:47;;;;;;;0.60;0.30;;;;;;;25.63;69.09;98450.54;180221;1260;44617;-83
2023/08/01 12:59:50;;;;;;;1.90;0.40;;;;;;;25.72;67.91;98455.99;180050;1260;44181;-81
2023/08/01 13:03:54;;;;;;;8.60;0.90;;;;;;;25.88;66.85;98455.18;180224;1257;59358;-83
2023/08/01 13:07:57;;;;;;;0.70;0.30;;;;;;;26.25;69.04;98455.84;180172;1260;45667;-83
2023/08/01 13:12:01;;;;;;;0.80;0.30;;;;;;;26.67;65.16;98455.48;180297;1260;44709;-83
2023/08/01 13:16:05;;;;;;;1.20;0.50;;;;;;;26.68;62.70;98451.73;179978;1260;44199;-83
2023/08/01 13:20:08;;;;;;;1.20;0.80;;;;;;;26.39;61.91;98449.40;180077;1260;46150;-83
2023/08/01 13:24:12;;;;;;;1.30;0.90;;;;;;;26.11;63.43;98447.89;180065;1258;59100;-82
2023/08/01 13:28:16;;;;;;;1.60;0.90;;;;;;;25.86;63.65;98454.75;180088;1260;45956;-81
2023/08/01 13:32:20;;;;;;;2.20;0.50;;;;;;;25.68;64.03;98461.27;180306;1259;46003;-82
2023/08/01 13:36:24;;;;;;;1.90;0.60;;;;;;;25.51;64.36;98451.81;180031;1259;45875;-82
2023/08/01 13:40:27;;;;;;;2.10;0.60;;;;;;;25.36;65.04;98450.17;180140;1260;44261;-81
2023/08/01 13:44:32;;;;;;;2.20;0.30;;;;;;;25.27;64.92;98445.42;179979;1257;60982;-80
2023/08/01 13:48:36;;;;;;;;;;;;;;;25.27;65.48;98446.73;179815;1260;45895;-80
2023/08/01 13:52:39;;;;;;;2.80;0.80;;;;;;;25.27;65.40;98451.02;179853;1260;44321;-80
2023/08/01 13:56:44;;;;;;;0.90;0.50;;;;;;;25.41;65.12;98450.48;179829;1260;45245;-82
2023/08/01 14:00:53;;;;;;;3.20;1.20;;;;;;;25.80;64.72;98456.91;180429;1259;45974;-81
2023/08/01 14:04:58;;;;;;;2.50;1.30;;;;;;;26.33;64.86;98458.89;180314;1260;58502;-82
2023/08/01 14:09:05;;;;;;;5.40;0.40;;;;;;;26.63;63.20;98467.98;180328;1260;43767;-82
2023/08/01 14:13:09;;;;;;;2.00;0.30;;;;;;;26.70;61.71;98478.27;180369;1260;46149;-82
2023/08/01 14:17:12;;;;;;;0.30;0.20;;;;;;;26.82;61.41;98481.80;180328;1258;44513;-83
2023/08/01 14:21:16;;;;;;;0.50;0.20;;;;;;;26.89;60.08;98482.89;180273;1260;43356;-82
2023/08/01 14:25:21;;;;;;;0.40;0.20;;;;;;;26.85;58.44;98484.74;180256;1261;60352;-82
2023/08/01 14:29:25;;;;;;;1.50;0.60;;;;;;;26.73;57.27;98463.11;180290;1260;45748;-81
2023/08/01 14:33:31;;;;;;;1.00;0.40;;;;;;;26.65;58.08;98460.52;180309;1259;46035;-83
2023/08/01 14:37:36;;;;;;;0.40;0.20;;;;;;;26.63;59.46;98477.64;180305;1260;46072;-82
2023/08/01 14:41:41;;;;;;;1.10;0.30;;;;;;;26.74;59.91;98487.12;180255;1260;44606;-82
2023/08/01 14:45:51;;;;;;;1.30;0.40;;;;;;;26.82;60.09;98491.40;180216;1259;60579;-82
2023/08/01 14:49:56;;;;;;;0.70;0.30;;;;;;;26.89;61.70;98485.34;180273;1260;44233;-83
2023/08/01 14:54:00;;;;;;;1.50;0.60;;;;;;;26.82;62.05;98493.91;180525;1261;45981;-82
2023/08/01 14:58:05;;;;;;;1.00;0.60;;;;;;;26.81;62.97;98498.21;180393;1259;46001;-82
2023/08/01 15:02:09;;;;;;;6.70;1.40;;;;;;;26.77;61.55;98493.14;180227;1260;44694;-82
2023/08/01 15:06:15;;;;;;;;;;;;;;;26.73;60.11;98495.30;180180;1260;58050;-82
2023/08/01 15:10:19;;;;;;;0.70;0.30;;;;;;;26.66;60.41;98519.19;180564;1260;43638;-82
2023/08/01 15:14:23;;;;;;;0.80;0.50;;;;;;;26.48;59.15;98532.73;180301;1260;46105;-82
2023/08/01 15:18:27;;;;;;;0.90;0.50;;;;;;;26.24;59.12;98535.25;180382;1259;43792;-82
2023/08/01 15:22:31;;;;;;;2.10;0.40;;;;;;;26.01;59.76;98526.55;180088;1259;45294;-82
2023/08/01 15:26:35;;;;;;;0.90;0.40;;;;;;;25.89;60.70;98525.27;180188;1257;58201;-82
2023/08/01 15:30:40;;;;;;;2.20;1.00;;;;;;;25.83;62.29;98529.14;180146;1260;44562;-82
2023/08/01 15:34:43;;;;;;;0.70;0.40;;;;;;;25.73;62.35;98530.43;180076;1261;43649;-82
2023/08/01 15:38:47;;;;;;;1.70;1.00;;;;;;;25.66;63.23;98539.17;180054;1260;45904;-82
2023/08/01 15:42:51;;;;;;;11.10;1.80;;;;;;;25.43;63.07;98565.06;180102;1259;44046;-82
2023/08/01 15:46:55;;;;;;;3.30;0.70;;;;;;;24.13;69.30;98606.62;180306;1258;58149;-82
2023/08/01 15:50:58;;;;;;;2.80;1.20;;;;;;;22.40;79.58;98630.84;179740;1260;45981;-82
2023/08/01 15:55:02;;;;;;;2.60;0.50;;;;;;;21.43;88.06;98646.77;179743;1258;45987;-82
2023/08/01 15:59:05;;;;;;;1.40;0.40;;;;;;;20.84;95.14;98654.30;179180;1261;46019;-82
2023/08/01 16:03:10;;;;;;;2.20;0.60;;;;;;;20.52;99.68;98662.56;179672;1257;45955;-82
2023/08/01 16:07:14;;;;;;;3.10;0.40;;;;;;;20.14;100.00;98669.37;179010;1257;58842;-81
2023/08/01 16:11:19;;;;;;;3.70;0.60;;;;;;;20.01;100.00;98660.81;179255;1258;44799;-82
2023/08/01 16:15:22;;;;;;;1.40;0.40;;;;;;;19.91;100.00;98649.89;179396;1257;46008;-82
2023/08/01 16:19:28;;;;;;;3.00;0.60;;;;;;;19.76;100.00;98648.48;179341;1259;45991;-81
2023/08/01 16:23:34;;;;;;;1.40;0.30;;;;;;;19.59;100.00;98642.08;179062;1258;43984;-83
2023/08/01 16:27:38;;;;;;;1.40;0.60;;;;;;;19.43;100.00;98636.86;178699;1257;60488;-82
2023/08/01 16:31:44;;;;;;;0.50;0.20;;;;;;;19.29;100.00;98636.06;179118;1260;45234;-82
2023/08/01 16:35:48;;;;;;;0.50;0.20;;;;;;;19.24;100.00;98630.38;178570;1259;46140;-81
2023/08/01 16:39:52;;;;;;;2.40;0.40;;;;;;;19.21;100.00;98642.36;178698;1263;46111;-81
2023/08/01 16:43:56;;;;;;;2.30;1.30;;;;;;;19.23;100.00;98639.02;178822;1259;46144;-81
2023/08/01 16:48:00;;;;;;;2.60;0.70;;;;;;;19.32;100.00;98647.73;178252;1259;56964;-81
2023/08/01 16:52:04;;;;;;;2.10;0.50;;;;;;;19.35;100.00;98655.54;180004;1258;46063;-81
2023/08/01 16:56:07;;;;;;;1.90;0.80;;;;;;;19.39;100.00;98657.52;180156;1260;46214;-82
2023/08/01 17:00:13;;;;;;;2.00;0.40;;;;;;;19.40;100.00;98657.42;179900;1259;46182;-81
2023/08/01 17:04:17;;;;;;;2.90;1.00;;;;;;;19.48;100.00;98654.77;178487;1259;45137;-82
2023/08/01 17:08:21;;;;;;;1.60;0.60;;;;;;;19.59;100.00;98658.89;179078;1260;59293;-82
2023/08/01 17:12:26;;;;;;;9.20;1.40;;;;;;;19.66;100.00;98664.66;178751;1259;46038;-82
2023/08/01 17:16:29;;;;;;;0.40;0.40;;;;;;;19.70;100.00;98666.77;179139;1260;202713;-82
2023/08/01 17:20:36;;;;;;;2.40;1.10;;;;;;;19.71;100.00;98670.52;179255;1259;46124;-82
2023/08/01 17:24:39;;;;;;;2.20;0.50;;;;;;;19.73;100.00;98668.89;179654;1260;46115;-81
2023/08/01 17:28:42;;;;;;;1.20;0.80;;;;;;;19.76;100.00;98678.81;179602;1258;59763;-82
2023/08/01 17:32:48;;;;;;;2.70;0.70;;;;;;;19.81;100.00;98675.72;178320;1259;46070;-83
2023/08/01 17:36:51;;;;;;;1.20;0.60;;;;;;;19.84;100.00;98674.23;178515;1259;45839;-83
2023/08/01 17:40:55;;;;;;;4.50;1.20;;;;;;;19.81;100.00;98682.20;178099;1258;46112;-83
2023/08/01 17:44:58;;;;;;;1.20;1.10;;;;;;;19.84;100.00;98684.54;178186;1260;46442;-83
2023/08/01 17:49:01;;;;;;;1.90;0.80;;;;;;;19.88;100.00;98687.12;178255;1262;58078;-82
2023/08/01 17:53:05;;;;;;;2.40;1.10;;;;;;;19.84;100.00;98688.42;179244;1259;45857;-83
2023/08/01 17:57:09;;;;;;;2.10;1.10;;;;;;;19.88;100.00;98694.70;178907;1258;46108;-83
2023/08/01 18:01:12;;;;;;;1.20;0.70;;;;;;;19.96;100.00;98692.51;178474;1257;45683;-83
2023/08/01 18:05:15;;;;;;;1.80;1.40;;;;;;;20.00;100.00;98687.48;178907;1257;46166;-84
2023/08/01 18:09:19;;;;;;;1.20;0.90;;;;;;;19.96;100.00;98700.05;179243;1259;59452;-83
2023/08/01 18:13:23;;;;;;;1.20;0.90;;;;;;;19.87;100.00;98708.03;178574;1259;45994;-84
2023/08/01 18:17:26;;;;;;;3.80;1.80;;;;;;;19.77;100.00;98722.75;178490;1259;46093;-84
2023/08/01 18:21:29;;;;;;;3.70;1.70;;;;;;;19.73;100.00;98736.45;178668;1260;45109;-82
2023/08/01 18:25:34;;;;;;;2.30;1.70;;;;;;;19.65;100.00;98751.42;178062;1259;46038;-82
2023/08/01 18:29:38;;;;;;;5.60;2.80;;;;;;;19.57;100.00;98766.02;178443;1259;58623;-82
2023/08/01 18:33:41;;;;;;;3.40;1.90;;;;;;;19.48;100.00;98762.64;178585;1259;45855;-82
2023/08/01 18:37:44;;;;;;;3.80;1.60;;;;;;;19.39;100.00;98763.66;178452;1261;46077;-82
2023/08/01 18:41:49;;;;;;;3.60;2.00;;;;;;;19.29;100.00;98770.63;178481;1259;44839;-82
2023/08/01 18:45:57;;;;;;;3.90;1.50;;;;;;;19.21;100.00;98776.15;178056;1259;46458;-82
2023/08/01 18:50:00;;;;;;;3.50;1.30;;;;;;;19.10;100.00;98779.20;177996;1262;58575;-83